Redings Mill, Missouri
Current Conditions -  °F | °C
As of 2:53 AM on Sunday 26 Oct 2014 (Local Time) from KJLN Reporting Station
Clear Clear  
Wind Chill: 63°   Ceiling: Unl
Heat Index: 63°   Visibility: 10mi
Dew Point: 61°   Wind: 8mph
Humidity: 93%   Direction: 190°S
Pressure: 29.99"   Gusts: NA
Location:  37.1074°N, 94.5218°W
Report Text: KJLN 260753Z AUTO 19007KT 10SM CLR 17/16 A2999 RMK AO2 SLP144 T01720161
Loading
Personal Weather Stations






























Interactive Weather Map New forecast layout! Learn more

10-Day Weather Forecast

Advertisements
Track Severe Weather on mobile